Time;durP1;ratioP1;P1;durP2;ratioP2;P2;SDS_P1;SDS_P2;PMS_P1;PMS_P2;Temp;Humidity;BMP_temperature;BMP_pressure;BME280_temperature;BME280_humidity;BME280_pressure;Samples;Min_cycle;Max_cycle;Signal;HPM_P1;HPM_P2
2022/10/20 00:01:08;;;;;;;6.33;2.60;;;;;;;;;;5093089;28;20192;-83
2022/10/20 00:03:37;;;;;;;6.57;4.73;;;;;;;;;;5115028;28;20224;-83
2022/10/20 00:06:09;;;;;;;5.70;4.10;;;;;;;;;;5096583;28;20193;-83
2022/10/20 00:08:38;;;;;;;10.67;5.87;;;;;;;;;;5097244;28;20206;-83
2022/10/20 00:11:07;;;;;;;6.30;4.53;;;;;;;;;;5095992;28;20283;-83
2022/10/20 00:13:35;;;;;;;6.97;5.47;;;;;;;;;;5096526;28;20287;-83
2022/10/20 00:16:05;;;;;;;8.17;5.27;;;;;;;;;;5083643;28;20205;-83
2022/10/20 00:18:34;;;;;;;6.50;5.13;;;;;;;;;;5083559;28;20216;-83
2022/10/20 00:21:05;;;;;;;8.20;5.40;;;;;;;;;;5096486;28;20254;-83
2022/10/20 00:23:35;;;;;;;8.87;5.07;;;;;;;;;;5082784;28;20197;-83
2022/10/20 00:26:04;;;;;;;7.07;5.37;;;;;;;;;;5114345;28;20219;-83
2022/10/20 00:28:32;;;;;;;5.63;4.97;;;;;;;;;;5096131;28;20200;-83
2022/10/20 00:31:01;;;;;;;6.03;4.77;;;;;;;;;;5096728;28;20202;-83
2022/10/20 00:33:30;;;;;;;9.47;6.27;;;;;;;;;;5113809;28;20190;-83
2022/10/20 00:35:59;;;;;;;8.30;4.63;;;;;;;;;;5096034;28;20280;-83
2022/10/20 00:38:27;;;;;;;4.33;3.53;;;;;;;;;;5096126;28;20292;-83
2022/10/20 00:40:58;;;;;;;7.63;5.40;;;;;;;;;;5084740;28;20228;-83
2022/10/20 00:43:41;;;;;;;10.10;6.80;;;;;;;;;;5094761;28;20293;-83
2022/10/20 00:46:10;;;;;;;5.77;5.20;;;;;;;;;;5113113;28;20195;-83
2022/10/20 00:48:41;;;;;;;7.90;5.30;;;;;;;;;;5076515;28;20251;-83
2022/10/20 00:51:09;;;;;;;4.33;3.67;;;;;;;;;;5074692;28;20208;-83
2022/10/20 00:53:38;;;;;;;11.37;6.03;;;;;;;;;;5095902;28;20236;-83
2022/10/20 00:56:06;;;;;;;6.60;5.10;;;;;;;;;;5113457;28;20229;-83
2022/10/20 00:58:35;;;;;;;6.47;4.63;;;;;;;;;;5113466;28;20202;-83
2022/10/20 01:01:04;;;;;;;9.73;4.77;;;;;;;;;;5095474;28;20197;-83
2022/10/20 01:03:37;;;;;;;6.00;5.40;;;;;;;;;;5095840;28;20198;-83
2022/10/20 01:06:07;;;;;;;9.20;6.40;;;;;;;;;;5108686;28;20218;-83
2022/10/20 01:08:35;;;;;;;5.17;4.67;;;;;;;;;;5075954;28;20237;-83
2022/10/20 01:11:09;;;;;;;6.43;5.57;;;;;;;;;;5081989;28;20201;-84
2022/10/20 01:13:43;;;;;;;7.53;6.17;;;;;;;;;;5085519;28;20204;-84
2022/10/20 01:16:14;;;;;;;7.00;6.10;;;;;;;;;;5077868;28;20215;-83
2022/10/20 01:18:46;;;;;;;8.73;5.60;;;;;;;;;;5087008;28;20197;-83
2022/10/20 01:21:40;;;;;;;6.80;5.33;;;;;;;;;;5110202;28;20248;-83
2022/10/20 01:24:24;;;;;;;2.50;2.37;;;;;;;;;;5089588;28;20198;-83
2022/10/20 01:27:03;;;;;;;8.77;6.43;;;;;;;;;;5087231;28;20204;-83
2022/10/20 01:29:34;;;;;;;6.90;5.10;;;;;;;;;;5095329;28;20217;-83
2022/10/20 01:32:08;;;;;;;6.33;4.63;;;;;;;;;;5100197;28;20225;-83
2022/10/20 01:34:46;;;;;;;5.27;3.43;;;;;;;;;;5101238;28;20261;-83
2022/10/20 01:37:22;;;;;;;11.10;6.73;;;;;;;;;;5113286;28;20255;-83
2022/10/20 01:40:12;;;;;;;6.77;5.50;;;;;;;;;;5082228;28;20237;-83
2022/10/20 01:42:42;;;;;;;7.17;5.27;;;;;;;;;;5099777;28;20291;-83
2022/10/20 01:45:14;;;;;;;5.13;4.50;;;;;;;;;;5093897;28;20271;-83
2022/10/20 01:47:44;;;;;;;5.70;5.00;;;;;;;;;;5090155;28;20201;-83
2022/10/20 01:50:13;;;;;;;6.40;3.70;;;;;;;;;;5095352;28;20240;-83
2022/10/20 01:52:41;;;;;;;10.47;5.83;;;;;;;;;;5095128;28;20234;-83
2022/10/20 01:55:12;;;;;;;5.60;2.77;;;;;;;;;;5113395;28;20232;-83
2022/10/20 01:57:45;;;;;;;4.93;3.73;;;;;;;;;;5094777;28;20292;-83
2022/10/20 02:00:16;;;;;;;6.77;4.90;;;;;;;;;;5113540;28;20206;-83
2022/10/20 02:02:53;;;;;;;6.57;5.53;;;;;;;;;;5089775;28;20290;-83
2022/10/20 02:05:31;;;;;;;5.43;4.60;;;;;;;;;;5093800;28;20206;-83
2022/10/20 02:08:04;;;;;;;3.03;2.83;;;;;;;;;;5083805;28;20202;-83
2022/10/20 02:10:35;;;;;;;3.57;2.33;;;;;;;;;;5100045;28;20199;-83
2022/10/20 02:13:07;;;;;;;6.53;4.37;;;;;;;;;;5095060;28;20210;-83
2022/10/20 02:15:38;;;;;;;7.67;4.30;;;;;;;;;;5094850;28;20202;-83
2022/10/20 02:18:08;;;;;;;3.57;2.87;;;;;;;;;;5082739;28;20271;-83
2022/10/20 02:20:40;;;;;;;5.43;4.63;;;;;;;;;;5099843;28;20308;-83
2022/10/20 02:23:09;;;;;;;9.03;5.03;;;;;;;;;;5113445;28;20231;-83
2022/10/20 02:25:38;;;;;;;5.43;4.70;;;;;;;;;;5081679;28;20198;-83
2022/10/20 02:28:09;;;;;;;3.97;3.57;;;;;;;;;;5113154;28;20197;-83
2022/10/20 02:30:40;;;;;;;13.53;6.83;;;;;;;;;;5095064;28;20292;-83
2022/10/20 02:33:08;;;;;;;8.07;5.97;;;;;;;;;;5094359;28;20209;-83
2022/10/20 02:35:36;;;;;;;7.00;5.67;;;;;;;;;;5115439;28;20255;-83
2022/10/20 02:38:05;;;;;;;9.80;6.47;;;;;;;;;;5096276;28;20282;-83
2022/10/20 02:40:33;;;;;;;4.57;3.43;;;;;;;;;;5087401;28;20208;-83
2022/10/20 02:43:01;;;;;;;9.37;6.07;;;;;;;;;;5113888;28;20285;-83
2022/10/20 02:45:30;;;;;;;5.97;5.37;;;;;;;;;;5088131;28;20225;-83
2022/10/20 02:48:00;;;;;;;5.67;4.53;;;;;;;;;;5103170;28;20202;-83
2022/10/20 02:50:30;;;;;;;17.40;7.23;;;;;;;;;;5105442;28;20319;-83
2022/10/20 02:52:58;;;;;;;3.53;3.20;;;;;;;;;;5091892;28;20285;-83
2022/10/20 02:55:27;;;;;;;6.63;5.20;;;;;;;;;;5089869;28;20198;-83
2022/10/20 02:57:55;;;;;;;5.83;3.33;;;;;;;;;;5079672;28;20345;-83
2022/10/20 03:00:28;;;;;;;9.73;5.87;;;;;;;;;;5108355;28;20281;-83
2022/10/20 03:02:56;;;;;;;6.73;5.63;;;;;;;;;;5078270;28;20204;-83
2022/10/20 03:05:26;;;;;;;11.37;6.80;;;;;;;;;;5096274;28;20231;-83
2022/10/20 03:07:55;;;;;;;6.13;4.43;;;;;;;;;;5097724;28;20194;-83
2022/10/20 03:10:23;;;;;;;7.50;6.03;;;;;;;;;;5084666;28;20245;-83
2022/10/20 03:12:51;;;;;;;8.43;6.63;;;;;;;;;;5115748;28;20223;-83
2022/10/20 03:15:20;;;;;;;6.93;5.93;;;;;;;;;;5115769;28;20201;-83
2022/10/20 03:17:48;;;;;;;6.10;4.30;;;;;;;;;;5088773;28;20219;-83
2022/10/20 03:20:16;;;;;;;5.10;4.00;;;;;;;;;;5093568;28;20289;-83
2022/10/20 03:22:46;;;;;;;8.67;7.73;;;;;;;;;;5115987;28;20280;-83
2022/10/20 03:25:14;;;;;;;9.93;6.43;;;;;;;;;;5097525;28;20300;-83
2022/10/20 03:27:43;;;;;;;7.67;5.53;;;;;;;;;;5105590;28;20259;-83
2022/10/20 03:30:11;;;;;;;13.23;9.07;;;;;;;;;;5077621;28;20229;-83
2022/10/20 03:32:40;;;;;;;13.13;8.90;;;;;;;;;;5106320;28;20209;-83
2022/10/20 03:35:08;;;;;;;7.43;5.23;;;;;;;;;;5115228;28;20193;-83
2022/10/20 03:37:37;;;;;;;10.87;6.10;;;;;;;;;;5097524;28;20312;-83
2022/10/20 03:40:07;;;;;;;7.17;4.77;;;;;;;;;;5097189;28;20209;-83
2022/10/20 03:42:35;;;;;;;6.97;6.27;;;;;;;;;;5115168;28;20213;-83
2022/10/20 03:45:05;;;;;;;11.27;7.13;;;;;;;;;;5108647;28;20198;-83
2022/10/20 03:47:33;;;;;;;10.47;7.40;;;;;;;;;;5089358;28;20189;-83
2022/10/20 03:50:01;;;;;;;6.73;3.67;;;;;;;;;;5101624;28;20248;-83
2022/10/20 03:52:30;;;;;;;10.60;6.03;;;;;;;;;;5096983;28;20202;-83
2022/10/20 03:54:58;;;;;;;12.73;9.17;;;;;;;;;;5089721;28;20294;-83
2022/10/20 03:57:28;;;;;;;11.00;7.30;;;;;;;;;;5091146;28;20249;-83
2022/10/20 03:59:56;;;;;;;8.87;5.93;;;;;;;;;;5089091;28;20218;-83
2022/10/20 04:02:30;;;;;;;7.10;6.20;;;;;;;;;;5091863;28;20237;-83
2022/10/20 04:04:58;;;;;;;9.93;7.97;;;;;;;;;;5105451;28;20197;-83
2022/10/20 04:07:27;;;;;;;6.13;4.27;;;;;;;;;;5093196;28;20201;-83
2022/10/20 04:09:55;;;;;;;10.23;6.93;;;;;;;;;;5086194;28;20216;-83
2022/10/20 04:12:24;;;;;;;11.83;7.93;;;;;;;;;;5093850;28;20224;-83
2022/10/20 04:14:54;;;;;;;6.73;5.47;;;;;;;;;;5095881;28;20287;-83
2022/10/20 04:17:22;;;;;;;9.07;6.63;;;;;;;;;;5083129;28;20291;-82
2022/10/20 04:19:50;;;;;;;8.00;6.53;;;;;;;;;;5085282;28;20281;-83
2022/10/20 04:22:19;;;;;;;9.50;8.03;;;;;;;;;;5089971;28;20244;-83
2022/10/20 04:24:47;;;;;;;14.87;9.43;;;;;;;;;;5089500;28;20193;-83
2022/10/20 04:27:15;;;;;;;7.03;4.60;;;;;;;;;;5114579;28;20275;-83
2022/10/20 04:29:44;;;;;;;10.00;7.40;;;;;;;;;;5114097;28;20285;-82
2022/10/20 04:32:13;;;;;;;9.47;7.57;;;;;;;;;;5095696;28;20194;-83
2022/10/20 04:34:42;;;;;;;6.87;6.00;;;;;;;;;;5095412;28;20226;-83
2022/10/20 04:37:10;;;;;;;10.47;6.73;;;;;;;;;;5114160;28;20204;-83
2022/10/20 04:39:39;;;;;;;9.70;5.13;;;;;;;;;;5082347;28;20213;-83
2022/10/20 04:42:07;;;;;;;3.00;2.80;;;;;;;;;;5095922;28;20194;-83
2022/10/20 04:44:35;;;;;;;8.13;6.27;;;;;;;;;;5094404;28;20198;-83
2022/10/20 04:47:04;;;;;;;8.67;6.67;;;;;;;;;;5096200;28;20197;-83
2022/10/20 04:49:33;;;;;;;5.93;4.67;;;;;;;;;;5111057;28;20225;-83
2022/10/20 04:52:02;;;;;;;3.07;2.80;;;;;;;;;;5086910;28;20231;-83
2022/10/20 04:54:30;;;;;;;6.80;4.10;;;;;;;;;;5095084;28;20193;-83
2022/10/20 04:56:58;;;;;;;2.10;2.00;;;;;;;;;;5096073;28;20201;-83
2022/10/20 04:59:27;;;;;;;3.20;2.73;;;;;;;;;;5082330;28;20206;-83
2022/10/20 05:01:55;;;;;;;7.30;4.23;;;;;;;;;;5095291;28;20230;-83
2022/10/20 05:04:23;;;;;;;3.97;3.57;;;;;;;;;;5095849;28;20209;-83
2022/10/20 05:06:53;;;;;;;4.83;3.33;;;;;;;;;;5113949;28;20217;-82
2022/10/20 05:09:22;;;;;;;3.73;3.23;;;;;;;;;;5076591;28;20198;-82
2022/10/20 05:11:50;;;;;;;3.67;3.33;;;;;;;;;;5107206;28;20208;-82
2022/10/20 05:14:19;;;;;;;4.47;4.03;;;;;;;;;;5095102;28;20240;-82
2022/10/20 05:17:14;;;;;;;10.70;5.43;;;;;;;;;;5100784;28;20196;-83
2022/10/20 05:19:44;;;;;;;10.27;7.50;;;;;;;;;;5084287;28;20210;-83
2022/10/20 05:22:14;;;;;;;1.43;1.37;;;;;;;;;;5106734;28;20200;-83
2022/10/20 05:24:43;;;;;;;2.93;2.73;;;;;;;;;;5106489;28;20211;-83
2022/10/20 05:27:12;;;;;;;4.80;4.33;;;;;;;;;;5095417;28;20254;-82
2022/10/20 05:29:40;;;;;;;4.70;4.23;;;;;;;;;;5095270;28;20224;-83
2022/10/20 05:32:08;;;;;;;7.30;4.17;;;;;;;;;;5095078;28;20203;-82
2022/10/20 05:34:37;;;;;;;3.67;2.13;;;;;;;;;;5095254;28;20199;-82
2022/10/20 05:37:06;;;;;;;2.47;2.27;;;;;;;;;;5113220;28;20254;-83
2022/10/20 05:39:36;;;;;;;4.10;3.70;;;;;;;;;;5095358;28;20213;-83
2022/10/20 05:42:04;;;;;;;3.40;2.60;;;;;;;;;;5095066;28;20211;-83
2022/10/20 05:44:33;;;;;;;2.90;2.70;;;;;;;;;;5082516;28;20226;-84
2022/10/20 05:47:01;;;;;;;9.67;5.87;;;;;;;;;;5113139;28;20218;-85
2022/10/20 05:49:29;;;;;;;11.37;7.77;;;;;;;;;;5094935;28;20222;-85
2022/10/20 05:51:58;;;;;;;7.57;5.53;;;;;;;;;;5113463;28;20246;-85
2022/10/20 05:54:26;;;;;;;3.80;3.53;;;;;;;;;;5078853;28;20202;-84
2022/10/20 05:56:56;;;;;;;1.43;1.43;;;;;;;;;;5103970;28;20274;-84
2022/10/20 05:59:24;;;;;;;1.57;1.47;;;;;;;;;;5095016;28;20217;-85
2022/10/20 06:01:52;;;;;;;5.70;5.17;;;;;;;;;;5094941;28;20228;-84
2022/10/20 06:04:22;;;;;;;2.27;2.17;;;;;;;;;;5081569;28;20222;-84
2022/10/20 06:06:51;;;;;;;4.17;3.07;;;;;;;;;;5095118;28;20228;-84
2022/10/20 06:09:20;;;;;;;4.33;3.93;;;;;;;;;;5082826;28;20197;-84
2022/10/20 06:11:49;;;;;;;3.30;3.07;;;;;;;;;;5117369;28;20203;-84
2022/10/20 06:14:21;;;;;;;3.10;2.17;;;;;;;;;;5086348;28;20199;-84
2022/10/20 06:16:51;;;;;;;9.27;7.47;;;;;;;;;;5098154;28;20193;-84
2022/10/20 06:19:19;;;;;;;13.87;8.33;;;;;;;;;;5098691;28;20214;-82
2022/10/20 06:21:48;;;;;;;3.77;3.43;;;;;;;;;;5096747;28;20212;-85
2022/10/20 06:24:17;;;;;;;11.77;8.57;;;;;;;;;;5087599;28;20232;-85
2022/10/20 06:26:46;;;;;;;14.50;8.80;;;;;;;;;;5103631;28;20245;-85
2022/10/20 06:29:15;;;;;;;9.07;6.43;;;;;;;;;;5116688;28;20198;-83
2022/10/20 06:31:46;;;;;;;12.17;7.47;;;;;;;;;;5116809;28;20195;-83
2022/10/20 06:34:15;;;;;;;6.63;5.87;;;;;;;;;;5098816;28;20226;-82
2022/10/20 06:36:44;;;;;;;11.80;8.97;;;;;;;;;;5098736;28;20195;-80
2022/10/20 06:39:14;;;;;;;12.93;7.53;;;;;;;;;;5090204;28;20243;-83
2022/10/20 06:41:47;;;;;;;6.60;4.83;;;;;;;;;;5098345;28;20191;-81
2022/10/20 06:44:15;;;;;;;6.93;5.80;;;;;;;;;;5085237;28;20207;-82
2022/10/20 06:46:45;;;;;;;13.03;9.10;;;;;;;;;;5085424;28;20207;-81
2022/10/20 06:49:14;;;;;;;7.93;7.07;;;;;;;;;;5097450;28;20271;-82
2022/10/20 06:51:43;;;;;;;9.93;7.73;;;;;;;;;;5090284;28;20290;-81
2022/10/20 06:54:11;;;;;;;14.13;8.73;;;;;;;;;;5093078;28;20222;-81
2022/10/20 06:56:40;;;;;;;9.87;5.23;;;;;;;;;;5098296;28;20191;-82
2022/10/20 06:59:13;;;;;;;8.87;6.00;;;;;;;;;;5084603;28;20212;-84
2022/10/20 07:01:41;;;;;;;7.60;5.40;;;;;;;;;;5097949;28;20294;-83
2022/10/20 07:04:15;;;;;;;3.83;3.50;;;;;;;;;;5081757;28;20200;-83
2022/10/20 07:06:44;;;;;;;12.13;7.23;;;;;;;;;;5089401;28;20207;-83
2022/10/20 07:09:13;;;;;;;9.43;5.83;;;;;;;;;;5084427;28;20198;-83
2022/10/20 07:11:42;;;;;;;7.13;6.43;;;;;;;;;;5098160;28;20227;-83
2022/10/20 07:14:12;;;;;;;10.40;4.90;;;;;;;;;;5078411;28;20206;-83
2022/10/20 07:16:41;;;;;;;14.27;9.87;;;;;;;;;;5077386;28;20210;-83
2022/10/20 07:19:09;;;;;;;13.67;8.97;;;;;;;;;;5085098;28;20219;-83
2022/10/20 07:21:42;;;;;;;11.20;7.30;;;;;;;;;;5095548;28;20227;-83
2022/10/20 07:24:12;;;;;;;6.27;5.67;;;;;;;;;;5077866;28;20203;-83
2022/10/20 07:26:41;;;;;;;11.73;8.03;;;;;;;;;;5093013;28;20203;-83
2022/10/20 07:29:11;;;;;;;7.60;5.90;;;;;;;;;;5088720;28;20203;-83
2022/10/20 07:31:41;;;;;;;13.93;9.47;;;;;;;;;;5080613;28;20228;-83
2022/10/20 07:34:10;;;;;;;6.90;5.37;;;;;;;;;;5097661;28;20306;-83
2022/10/20 07:36:57;;;;;;;14.70;10.67;;;;;;;;;;5096989;28;20195;-83
2022/10/20 07:39:27;;;;;;;16.60;10.17;;;;;;;;;;5091935;28;20209;-85
2022/10/20 07:41:58;;;;;;;7.87;5.70;;;;;;;;;;5090912;28;20374;-83
2022/10/20 07:44:28;;;;;;;8.80;7.40;;;;;;;;;;5090161;28;20206;-81
2022/10/20 07:46:57;;;;;;;10.17;5.83;;;;;;;;;;5095457;28;20204;-82
2022/10/20 07:49:25;;;;;;;12.43;9.10;;;;;;;;;;5116428;27;20207;-82
2022/10/20 07:52:15;;;;;;;19.03;7.00;;;;;;;;;;5084624;28;20212;-83
2022/10/20 07:54:44;;;;;;;8.27;5.67;;;;;;;;;;5090043;28;20203;-82
2022/10/20 07:57:12;;;;;;;11.10;5.87;;;;;;;;;;5094902;28;20192;-82
2022/10/20 07:59:41;;;;;;;6.67;4.73;;;;;;;;;;5084718;28;20225;-81
2022/10/20 08:02:10;;;;;;;8.33;6.10;;;;;;;;;;5101096;28;20206;-82
2022/10/20 08:04:40;;;;;;;7.73;6.87;;;;;;;;;;5098639;28;20192;-81
2022/10/20 08:07:09;;;;;;;4.40;3.73;;;;;;;;;;5098468;28;20203;-81
2022/10/20 08:09:39;;;;;;;7.50;5.37;;;;;;;;;;5094541;28;20261;-83
2022/10/20 08:12:07;;;;;;;10.57;6.17;;;;;;;;;;5106128;27;20206;-83
2022/10/20 08:14:36;;;;;;;7.67;5.73;;;;;;;;;;5097370;27;20202;-82
2022/10/20 08:17:05;;;;;;;10.13;7.53;;;;;;;;;;5093234;28;20205;-80
2022/10/20 08:19:34;;;;;;;6.53;4.50;;;;;;;;;;5112261;28;20203;-80
2022/10/20 08:22:17;;;;;;;6.63;5.37;;;;;;;;;;5090682;28;20232;-80
2022/10/20 08:24:47;;;;;;;10.20;7.00;;;;;;;;;;5088146;28;20209;-80
2022/10/20 08:27:16;;;;;;;5.57;4.97;;;;;;;;;;5097029;28;20214;-81
2022/10/20 08:29:45;;;;;;;7.77;4.57;;;;;;;;;;5096451;27;20274;-81
2022/10/20 08:32:31;;;;;;;3.60;2.20;;;;;;;;;;5099940;27;20204;-81
2022/10/20 08:35:02;;;;;;;9.70;5.30;;;;;;;;;;5096420;28;20207;-81
2022/10/20 08:37:31;;;;;;;8.30;5.03;;;;;;;;;;5092992;28;20196;-81
2022/10/20 08:40:04;;;;;;;1.87;1.73;;;;;;;;;;5090842;28;20212;-81
2022/10/20 08:42:35;;;;;;;10.40;7.10;;;;;;;;;;5106530;28;20204;-81
2022/10/20 08:45:04;;;;;;;5.07;3.37;;;;;;;;;;5093335;28;20204;-80
2022/10/20 08:47:35;;;;;;;10.23;4.93;;;;;;;;;;5111035;27;20287;-82
2022/10/20 08:50:06;;;;;;;1.20;1.20;;;;;;;;;;5084169;28;20236;-81
2022/10/20 08:52:35;;;;;;;7.17;5.20;;;;;;;;;;5090399;28;20197;-81
2022/10/20 08:55:06;;;;;;;12.13;5.00;;;;;;;;;;5095200;28;20204;-81
2022/10/20 08:57:35;;;;;;;8.63;6.23;;;;;;;;;;5093340;28;20203;-80
2022/10/20 09:00:13;;;;;;;8.23;7.23;;;;;;;;;;5085677;27;20208;-81
2022/10/20 09:02:44;;;;;;;4.73;4.27;;;;;;;;;;5105495;27;20200;-82
2022/10/20 09:05:13;;;;;;;5.50;4.07;;;;;;;;;;5097805;28;20215;-82
2022/10/20 09:07:48;;;;;;;8.17;4.53;;;;;;;;;;5084467;28;20317;-83
2022/10/20 09:10:24;;;;;;;6.57;5.70;;;;;;;;;;5099051;28;20279;-82
2022/10/20 09:12:53;;;;;;;9.47;6.37;;;;;;;;;;5076315;28;20293;-82
2022/10/20 09:15:25;;;;;;;11.20;6.20;;;;;;;;;;5078814;28;20626;-82
2022/10/20 09:17:56;;;;;;;5.17;3.87;;;;;;;;;;5106016;27;20192;-82
2022/10/20 09:20:26;;;;;;;13.03;7.20;;;;;;;;;;5090725;28;20235;-82
2022/10/20 09:22:55;;;;;;;4.47;4.07;;;;;;;;;;5092788;28;20197;-84
2022/10/20 09:25:28;;;;;;;4.93;3.43;;;;;;;;;;5092306;28;20200;-82
2022/10/20 09:27:57;;;;;;;5.73;3.53;;;;;;;;;;5089168;28;20231;-83
2022/10/20 09:30:33;;;;;;;6.60;5.53;;;;;;;;;;5082661;28;20227;-82
2022/10/20 09:33:10;;;;;;;8.53;6.20;;;;;;;;;;5095015;28;20203;-83
2022/10/20 09:35:40;;;;;;;1.80;1.43;;;;;;;;;;5089255;28;20204;-83
2022/10/20 09:38:17;;;;;;;2.37;2.27;;;;;;;;;;5091638;28;20204;-83
2022/10/20 09:40:57;;;;;;;5.27;4.33;;;;;;;;;;5084750;28;20215;-84
2022/10/20 09:43:29;;;;;;;3.10;2.90;;;;;;;;;;5101628;27;20195;-84
2022/10/20 09:46:00;;;;;;;4.33;2.90;;;;;;;;;;5105016;28;20193;-83
2022/10/20 09:48:30;;;;;;;3.83;2.13;;;;;;;;;;5090888;28;20199;-82
2022/10/20 09:51:00;;;;;;;8.50;5.13;;;;;;;;;;5096171;28;20223;-82
2022/10/20 09:53:31;;;;;;;17.27;4.53;;;;;;;;;;5093417;28;20204;-84
2022/10/20 09:56:01;;;;;;;4.70;3.17;;;;;;;;;;5096089;28;20204;-83
2022/10/20 09:58:31;;;;;;;5.53;3.70;;;;;;;;;;5094041;28;20246;-82
2022/10/20 10:01:02;;;;;;;6.80;4.90;;;;;;;;;;5087864;28;20208;-84
2022/10/20 10:03:38;;;;;;;6.13;4.83;;;;;;;;;;5102268;28;20286;-82
2022/10/20 10:06:21;;;;;;;5.23;4.07;;;;;;;;;;5102500;27;20187;-84
2022/10/20 10:08:50;;;;;;;5.43;3.67;;;;;;;;;;5097149;28;20192;-83
2022/10/20 10:11:22;;;;;;;1.50;1.43;;;;;;;;;;5089219;28;20196;-83
2022/10/20 10:13:52;;;;;;;6.53;4.13;;;;;;;;;;5096717;28;20240;-82
2022/10/20 10:16:23;;;;;;;7.47;4.83;;;;;;;;;;5097413;28;20290;-85
2022/10/20 10:19:01;;;;;;;2.23;1.60;;;;;;;;;;5098554;28;20227;-83
2022/10/20 10:21:30;;;;;;;2.63;2.43;;;;;;;;;;5097091;28;20215;-82
2022/10/20 10:24:00;;;;;;;7.83;2.60;;;;;;;;;;5103422;27;20198;-82
2022/10/20 10:26:46;;;;;;;5.23;4.37;;;;;;;;;;5097244;28;20223;-84
2022/10/20 10:29:24;;;;;;;6.90;5.40;;;;;;;;;;5085540;28;20223;-83
2022/10/20 10:31:59;;;;;;;5.90;3.00;;;;;;;;;;5108168;27;20194;-84
2022/10/20 10:34:33;;;;;;;3.67;3.40;;;;;;;;;;5084324;27;20203;-83
2022/10/20 10:37:03;;;;;;;3.93;3.63;;;;;;;;;;5095431;28;20205;-84
2022/10/20 10:39:34;;;;;;;2.40;1.90;;;;;;;;;;5097099;28;20201;-84
2022/10/20 10:42:15;;;;;;;3.10;2.60;;;;;;;;;;5092562;28;20220;-83
2022/10/20 10:44:51;;;;;;;6.40;3.87;;;;;;;;;;5088082;28;20193;-82
2022/10/20 10:47:31;;;;;;;3.10;2.10;;;;;;;;;;5087027;28;20205;-81
2022/10/20 10:50:06;;;;;;;3.83;2.20;;;;;;;;;;5090952;28;20319;-82
2022/10/20 10:52:42;;;;;;;1.17;1.17;;;;;;;;;;5097255;28;20186;-82
2022/10/20 10:55:16;;;;;;;1.73;1.27;;;;;;;;;;5090521;27;20210;-80
2022/10/20 10:58:08;;;;;;;0.40;0.40;;;;;;;;;;5086670;28;20209;-80
2022/10/20 11:00:41;;;;;;;0.93;0.93;;;;;;;;;;5095602;28;20205;-80
2022/10/20 11:03:21;;;;;;;4.70;3.30;;;;;;;;;;5092409;28;20289;-83
2022/10/20 11:06:00;;;;;;;2.83;2.63;;;;;;;;;;5094739;28;20197;-83
2022/10/20 11:08:37;;;;;;;6.10;4.40;;;;;;;;;;5096185;28;20240;-84
2022/10/20 11:11:13;;;;;;;7.17;3.93;;;;;;;;;;5119852;27;20249;-84
2022/10/20 11:13:44;;;;;;;6.00;4.87;;;;;;;;;;5095951;28;20209;-85
2022/10/20 11:16:32;;;;;;;9.13;7.43;;;;;;;;;;5098224;28;20200;-84
2022/10/20 11:19:19;;;;;;;7.13;5.60;;;;;;;;;;5096512;28;20201;-85
2022/10/20 11:21:52;;;;;;;2.90;2.13;;;;;;;;;;5091457;28;20242;-85
2022/10/20 11:24:36;;;;;;;5.40;3.40;;;;;;;;;;5086839;28;20314;-85
2022/10/20 11:27:08;;;;;;;7.07;3.10;;;;;;;;;;5084652;28;20198;-85
2022/10/20 11:29:40;;;;;;;1.50;1.40;;;;;;;;;;5085180;28;20205;-85
2022/10/20 11:32:11;;;;;;;5.50;3.50;;;;;;;;;;5097084;28;20221;-85
2022/10/20 11:34:47;;;;;;;5.07;3.63;;;;;;;;;;5097105;28;20320;-85
2022/10/20 11:37:19;;;;;;;1.97;1.87;;;;;;;;;;5097505;28;20277;-85
2022/10/20 11:39:50;;;;;;;1.90;1.80;;;;;;;;;;5097071;28;20196;-85
2022/10/20 11:42:24;;;;;;;1.50;1.40;;;;;;;;;;5097326;28;20237;-84
2022/10/20 11:44:55;;;;;;;4.37;2.80;;;;;;;;;;5096861;28;20189;-85
2022/10/20 11:47:26;;;;;;;8.17;4.43;;;;;;;;;;5097303;28;20205;-85
2022/10/20 11:49:54;;;;;;;8.90;5.13;;;;;;;;;;5097151;28;20257;-85
2022/10/20 11:52:41;;;;;;;9.27;5.37;;;;;;;;;;5097515;28;20209;-85
2022/10/20 11:55:27;;;;;;;17.57;13.93;;;;;;;;;;5108349;28;20283;-85
2022/10/20 11:58:02;;;;;;;16.97;11.13;;;;;;;;;;5097304;28;20201;-85
2022/10/20 12:00:38;;;;;;;10.13;5.80;;;;;;;;;;5083879;28;20193;-85
2022/10/20 12:03:15;;;;;;;10.47;6.93;;;;;;;;;;5077395;28;20238;-85
2022/10/20 12:05:56;;;;;;;14.10;9.60;;;;;;;;;;5090453;28;20210;-85
2022/10/20 12:08:33;;;;;;;9.30;6.90;;;;;;;;;;5088019;28;20270;-85
2022/10/20 12:11:06;;;;;;;15.80;12.07;;;;;;;;;;5096862;28;20193;-84
2022/10/20 12:13:38;;;;;;;15.47;11.87;;;;;;;;;;5096017;28;20221;-85
2022/10/20 12:16:08;;;;;;;25.07;14.63;;;;;;;;;;5084648;28;20283;-85
2022/10/20 12:18:37;;;;;;;21.03;14.87;;;;;;;;;;5093952;28;20201;-85
2022/10/20 12:21:07;;;;;;;10.47;5.70;;;;;;;;;;5103232;27;20216;-84
2022/10/20 12:24:01;;;;;;;2.43;2.27;;;;;;;;;;5093445;28;20234;-83
2022/10/20 12:26:53;;;;;;;0.60;0.60;;;;;;;;;;5089815;28;20203;-83
2022/10/20 12:29:40;;;;;;;8.93;7.53;;;;;;;;;;5076652;28;20247;-82
2022/10/20 12:32:35;;;;;;;8.63;6.13;;;;;;;;;;5101932;28;20190;-82
2022/10/20 12:35:24;;;;;;;5.10;3.20;;;;;;;;;;5113723;28;20228;-84
2022/10/20 12:37:55;;;;;;;3.03;2.17;;;;;;;;;;5083581;28;20305;-83
2022/10/20 12:40:26;;;;;;;1.90;1.90;;;;;;;;;;5088545;28;20200;-83
2022/10/20 12:42:56;;;;;;;0.50;0.50;;;;;;;;;;5107778;28;20257;-83
2022/10/20 12:45:40;;;;;;;0.93;0.87;;;;;;;;;;5103959;28;20198;-81
2022/10/20 12:48:21;;;;;;;6.47;4.30;;;;;;;;;;5076823;28;20294;-88
2022/10/20 12:50:55;;;;;;;0.73;0.73;;;;;;;;;;5076797;28;20280;-88
2022/10/20 12:53:27;;;;;;;1.23;1.20;;;;;;;;;;5085802;28;20201;-84
2022/10/20 12:56:01;;;;;;;9.83;7.70;;;;;;;;;;5082333;28;20200;-84
2022/10/20 12:58:33;;;;;;;15.77;10.27;;;;;;;;;;5085044;28;20214;-84
2022/10/20 13:01:07;;;;;;;9.17;3.27;;;;;;;;;;5100450;28;20195;-84
2022/10/20 13:03:44;;;;;;;2.73;2.30;;;;;;;;;;5082956;28;20242;-84
2022/10/20 13:06:29;;;;;;;9.63;7.30;;;;;;;;;;5095556;28;20201;-84
2022/10/20 13:09:19;;;;;;;11.80;8.20;;;;;;;;;;5071713;28;20253;-84
2022/10/20 13:11:59;;;;;;;14.60;11.27;;;;;;;;;;5094558;28;20238;-84
2022/10/20 13:14:33;;;;;;;18.63;12.50;;;;;;;;;;5100812;28;20199;-84
2022/10/20 13:17:15;;;;;;;21.53;12.67;;;;;;;;;;5096012;28;20223;-84
2022/10/20 13:19:47;;;;;;;29.17;14.80;;;;;;;;;;5094411;28;20211;-84
2022/10/20 13:22:38;;;;;;;20.87;14.47;;;;;;;;;;5095448;28;20258;-84
2022/10/20 13:25:20;;;;;;;8.30;5.23;;;;;;;;;;5082037;28;20212;-84
2022/10/20 13:27:49;;;;;;;19.20;13.20;;;;;;;;;;5095830;28;20205;-84
2022/10/20 13:30:21;;;;;;;21.70;15.67;;;;;;;;;;5095747;28;20202;-84
2022/10/20 13:32:55;;;;;;;26.27;20.50;;;;;;;;;;5112913;28;20193;-84
2022/10/20 13:35:49;;;;;;;23.60;17.30;;;;;;;;;;5092828;28;20202;-85
2022/10/20 13:38:20;;;;;;;8.27;6.20;;;;;;;;;;5080043;28;20208;-85
2022/10/20 13:40:54;;;;;;;23.33;15.63;;;;;;;;;;5084323;28;20289;-85
2022/10/20 13:43:28;;;;;;;14.23;10.90;;;;;;;;;;5094559;28;20214;-85
2022/10/20 13:46:11;;;;;;;10.43;7.13;;;;;;;;;;5113297;28;20197;-85
2022/10/20 13:48:45;;;;;;;11.63;9.33;;;;;;;;;;5086306;28;20205;-85
2022/10/20 13:51:17;;;;;;;15.57;10.20;;;;;;;;;;5090562;28;20257;-85
2022/10/20 13:53:50;;;;;;;7.80;6.43;;;;;;;;;;5085616;28;20251;-84
2022/10/20 13:56:25;;;;;;;11.87;10.50;;;;;;;;;;5095840;28;20267;-85
2022/10/20 13:59:00;;;;;;;19.90;15.00;;;;;;;;;;5084143;28;20198;-85
2022/10/20 14:01:34;;;;;;;6.20;2.97;;;;;;;;;;5129424;28;20198;-85
2022/10/20 14:04:02;;;;;;;5.63;5.13;;;;;;;;;;5095113;28;20210;-85
2022/10/20 14:06:38;;;;;;;16.03;12.77;;;;;;;;;;5095055;28;20261;-85
2022/10/20 14:09:26;;;;;;;23.00;12.90;;;;;;;;;;5093778;28;20202;-85
2022/10/20 14:12:01;;;;;;;23.07;15.77;;;;;;;;;;5086160;28;20199;-85
2022/10/20 14:14:30;;;;;;;13.20;9.70;;;;;;;;;;5076488;28;20199;-85
2022/10/20 14:17:00;;;;;;;25.33;18.80;;;;;;;;;;5075466;28;20235;-85
2022/10/20 14:19:33;;;;;;;17.83;13.47;;;;;;;;;;5103094;28;20206;-85
2022/10/20 14:22:13;;;;;;;24.53;19.13;;;;;;;;;;5095335;28;20214;-85
2022/10/20 14:24:44;;;;;;;31.27;20.97;;;;;;;;;;5094849;28;20264;-85
2022/10/20 14:27:16;;;;;;;29.10;22.33;;;;;;;;;;5081606;28;20200;-85
2022/10/20 14:29:45;;;;;;;24.77;19.60;;;;;;;;;;5122590;28;20236;-85
2022/10/20 14:32:17;;;;;;;36.97;28.40;;;;;;;;;;5085803;28;20202;-85
2022/10/20 14:34:54;;;;;;;31.87;26.83;;;;;;;;;;5115744;28;20232;-85
2022/10/20 14:37:29;;;;;;;29.73;21.97;;;;;;;;;;5121928;27;20205;-84
2022/10/20 14:39:59;;;;;;;25.27;18.40;;;;;;;;;;5094484;28;20207;-85
2022/10/20 14:42:30;;;;;;;13.57;8.97;;;;;;;;;;5079321;28;20201;-84
2022/10/20 14:45:00;;;;;;;25.80;19.17;;;;;;;;;;5079259;28;20240;-85
2022/10/20 14:47:33;;;;;;;24.47;16.90;;;;;;;;;;5109243;27;20201;-85
2022/10/20 14:50:01;;;;;;;21.43;15.70;;;;;;;;;;5078443;28;20234;-85
2022/10/20 14:52:34;;;;;;;32.00;27.73;;;;;;;;;;5122490;27;20207;-86
2022/10/20 14:55:03;;;;;;;28.00;21.70;;;;;;;;;;5078420;28;20222;-85
2022/10/20 14:57:37;;;;;;;23.80;16.97;;;;;;;;;;5079059;28;20208;-85
2022/10/20 15:00:25;;;;;;;23.37;16.57;;;;;;;;;;5090808;28;20213;-85
2022/10/20 15:02:57;;;;;;;22.93;17.37;;;;;;;;;;5086768;28;20256;-85
2022/10/20 15:05:32;;;;;;;20.03;15.13;;;;;;;;;;5084575;28;20296;-85
2022/10/20 15:08:09;;;;;;;25.17;18.60;;;;;;;;;;5098070;28;20227;-85